Time;durP1;ratioP1;P1;durP2;ratioP2;P2;SDS_P1;SDS_P2;PMS_P1;PMS_P2;Temp;Humidity;BMP_temperature;BMP_pressure;BME280_temperature;BME280_humidity;BME280_pressure;Samples;Min_cycle;Max_cycle;Signal;HPM_P1;HPM_P2
2023/12/10 00:02:18;;;;;;;17.77;6.25;;;;;;;;;;4972509;28;20025;-73
2023/12/10 00:04:44;;;;;;;30.00;11.65;;;;;;;;;;4971472;28;20101;-69
2023/12/10 00:07:11;;;;;;;21.75;7.43;;;;;;;;;;4971397;28;20127;-71
2023/12/10 00:09:37;;;;;;;22.88;7.60;;;;;;;;;;4974835;28;20084;-72
2023/12/10 00:12:03;;;;;;;21.02;6.10;;;;;;;;;;4977589;28;20688;-73
2023/12/10 00:14:29;;;;;;;14.43;4.20;;;;;;;;;;4975125;28;20148;-72
2023/12/10 00:16:55;;;;;;;;;;;;;;;;;;4974234;28;20068;-72
2023/12/10 00:19:21;;;;;;;17.92;4.90;;;;;;;;;;4977374;28;19918;-72
2023/12/10 00:21:48;;;;;;;23.02;6.93;;;;;;;;;;4976630;28;20049;-72
2023/12/10 00:24:14;;;;;;;;;;;;;;;;;;4973663;28;21239;-72
2023/12/10 00:26:40;;;;;;;20.65;4.70;;;;;;;;;;4974582;28;19917;-72
2023/12/10 00:29:06;;;;;;;18.35;5.22;;;;;;;;;;4972894;28;20113;-73
2023/12/10 00:31:32;;;;;;;20.67;6.78;;;;;;;;;;4976060;28;20112;-72
2023/12/10 00:33:58;;;;;;;18.00;6.18;;;;;;;;;;4972520;28;20065;-72
2023/12/10 00:36:25;;;;;;;21.17;6.13;;;;;;;;;;4974314;28;20036;-71
2023/12/10 00:38:51;;;;;;;;;;;;;;;;;;4973141;28;20034;-71
2023/12/10 00:41:17;;;;;;;17.05;4.22;;;;;;;;;;4974223;28;20012;-71
2023/12/10 00:43:43;;;;;;;15.73;4.35;;;;;;;;;;4976005;28;21428;-73
2023/12/10 00:46:10;;;;;;;;;;;;;;;;;;4972858;28;20405;-71
2023/12/10 00:48:40;;;;;;;18.38;4.63;;;;;;;;;;4975608;28;19918;-72
2023/12/10 00:51:06;;;;;;;16.75;4.32;;;;;;;;;;4973287;28;20022;-72
2023/12/10 00:53:32;;;;;;;;;;;;;;;;;;4976715;28;20100;-73
2023/12/10 00:55:58;;;;;;;16.05;5.43;;;;;;;;;;4972972;28;20125;-73
2023/12/10 00:58:24;;;;;;;14.32;4.03;;;;;;;;;;4980286;28;20044;-72
2023/12/10 01:00:51;;;;;;;15.48;4.38;;;;;;;;;;4978357;28;20057;-73
2023/12/10 01:03:18;;;;;;;18.80;5.88;;;;;;;;;;4975909;28;20037;-72
2023/12/10 01:05:44;;;;;;;23.60;10.85;;;;;;;;;;4976137;28;20052;-73
2023/12/10 01:08:10;;;;;;;;;;;;;;;;;;4977991;28;20072;-72
2023/12/10 01:10:36;;;;;;;18.95;7.45;;;;;;;;;;4979959;28;20095;-71
2023/12/10 01:13:03;;;;;;;19.08;7.68;;;;;;;;;;4975726;28;20029;-72
2023/12/10 01:15:32;;;;;;;;;;;;;;;;;;4978588;28;20075;-73
2023/12/10 01:18:01;;;;;;;27.00;15.50;;;;;;;;;;4976668;28;19920;-69
2023/12/10 01:20:28;;;;;;;22.48;9.95;;;;;;;;;;4976853;28;20107;-72
2023/12/10 01:22:55;;;;;;;18.85;8.57;;;;;;;;;;4980309;28;20057;-73
2023/12/10 01:25:21;;;;;;;;;;;;;;;;;;4979393;28;20029;-72
2023/12/10 01:27:47;;;;;;;25.02;8.82;;;;;;;;;;4976891;28;19918;-72
2023/12/10 01:30:13;;;;;;;;;;;;;;;;;;4972258;28;20034;-73
2023/12/10 01:32:40;;;;;;;14.45;5.60;;;;;;;;;;4993611;28;19979;-71
2023/12/10 01:35:08;;;;;;;21.70;11.32;;;;;;;;;;4974489;28;20044;-74
2023/12/10 01:37:34;;;;;;;18.83;7.75;;;;;;;;;;4978063;28;20034;-73
2023/12/10 01:40:00;;;;;;;;;;;;;;;;;;4977386;28;20018;-73
2023/12/10 01:42:26;;;;;;;16.08;6.15;;;;;;;;;;4979058;28;19941;-72
2023/12/10 01:44:52;;;;;;;13.82;3.97;;;;;;;;;;4979538;28;20041;-72
2023/12/10 01:47:19;;;;;;;17.65;7.88;;;;;;;;;;4977256;28;20026;-73
2023/12/10 01:49:47;;;;;;;14.15;3.72;;;;;;;;;;4978777;28;20032;-73
2023/12/10 01:52:13;;;;;;;20.52;9.38;;;;;;;;;;4977924;28;20104;-73
2023/12/10 01:54:39;;;;;;;14.88;5.03;;;;;;;;;;4977634;28;20275;-72
2023/12/10 01:57:07;;;;;;;13.63;5.10;;;;;;;;;;4976078;28;20381;-72
2023/12/10 01:59:35;;;;;;;13.13;4.22;;;;;;;;;;4977959;28;21242;-73
2023/12/10 02:02:01;;;;;;;15.60;5.32;;;;;;;;;;4973539;28;20034;-72
2023/12/10 02:04:28;;;;;;;15.60;5.07;;;;;;;;;;4979582;28;20034;-72
2023/12/10 02:06:54;;;;;;;15.63;6.60;;;;;;;;;;4975500;28;20022;-70
2023/12/10 02:09:20;;;;;;;;;;;;;;;;;;4974846;28;20025;-73
2023/12/10 02:11:46;;;;;;;13.55;5.20;;;;;;;;;;4977964;28;20003;-73
2023/12/10 02:14:12;;;;;;;14.15;4.32;;;;;;;;;;4974262;28;20633;-72
2023/12/10 02:16:39;;;;;;;10.60;3.95;;;;;;;;;;4980226;28;20569;-73
2023/12/10 02:19:05;;;;;;;;;;;;;;;;;;4975739;28;20664;-72
2023/12/10 02:21:32;;;;;;;15.40;4.35;;;;;;;;;;4992863;28;20657;-72
2023/12/10 02:24:06;;;;;;;11.05;3.90;;;;;;;;;;4977585;28;20018;-72
2023/12/10 02:26:32;;;;;;;18.27;6.53;;;;;;;;;;4978075;28;20030;-72
2023/12/10 02:28:58;;;;;;;16.75;4.82;;;;;;;;;;4976641;28;20104;-72
2023/12/10 02:31:25;;;;;;;13.93;5.53;;;;;;;;;;4979183;28;20030;-72
2023/12/10 02:33:52;;;;;;;14.05;4.72;;;;;;;;;;4955710;28;20019;-72
2023/12/10 02:36:18;;;;;;;16.27;6.90;;;;;;;;;;4971010;28;20060;-72
2023/12/10 02:38:49;;;;;;;14.90;5.20;;;;;;;;;;4983824;28;20022;-72
2023/12/10 02:41:15;;;;;;;15.82;5.03;;;;;;;;;;4981163;28;20120;-74
2023/12/10 02:43:41;;;;;;;20.85;9.13;;;;;;;;;;4983561;28;20231;-72
2023/12/10 02:46:07;;;;;;;14.43;5.20;;;;;;;;;;4981208;28;20034;-73
2023/12/10 02:48:33;;;;;;;15.13;5.43;;;;;;;;;;4986431;28;20112;-72
2023/12/10 02:50:59;;;;;;;;;;;;;;;;;;4983129;28;20042;-72
2023/12/10 02:53:25;;;;;;;15.23;5.70;;;;;;;;;;4982171;28;20422;-72
2023/12/10 02:55:52;;;;;;;15.32;5.55;;;;;;;;;;4986829;28;20052;-73
2023/12/10 02:58:18;;;;;;;;;;;;;;;;;;4981266;28;20049;-73
2023/12/10 03:00:44;;;;;;;13.10;4.10;;;;;;;;;;4983372;28;20276;-72
2023/12/10 03:03:10;;;;;;;16.40;4.45;;;;;;;;;;4980891;28;20064;-74
2023/12/10 03:05:36;;;;;;;;;;;;;;;;;;4983612;28;20022;-74
2023/12/10 03:08:02;;;;;;;15.75;4.53;;;;;;;;;;4977906;28;20344;-74
2023/12/10 03:10:28;;;;;;;16.17;4.40;;;;;;;;;;4949030;28;20453;-71
2023/12/10 03:12:55;;;;;;;15.30;3.88;;;;;;;;;;4940221;28;20049;-72
2023/12/10 03:15:21;;;;;;;12.50;3.60;;;;;;;;;;4943357;28;20030;-73
2023/12/10 03:17:47;;;;;;;13.68;3.60;;;;;;;;;;4941973;28;20113;-73
2023/12/10 03:20:13;;;;;;;;;;;;;;;;;;4940993;28;20143;-72
2023/12/10 03:22:39;;;;;;;15.18;4.15;;;;;;;;;;4942847;28;20383;-72
2023/12/10 03:25:05;;;;;;;;;;;;;;;;;;4938887;28;20706;-73
2023/12/10 03:27:31;;;;;;;13.70;3.75;;;;;;;;;;4953575;28;19936;-72
2023/12/10 03:29:58;;;;;;;13.23;3.90;;;;;;;;;;4940680;28;20033;-73
2023/12/10 03:32:24;;;;;;;15.18;4.18;;;;;;;;;;4944898;28;20046;-72
2023/12/10 03:34:50;;;;;;;11.90;3.65;;;;;;;;;;4941066;28;20046;-72
2023/12/10 03:37:16;;;;;;;13.85;4.28;;;;;;;;;;4938931;28;20076;-72
2023/12/10 03:39:42;;;;;;;12.82;4.30;;;;;;;;;;4943246;28;20037;-73
2023/12/10 03:42:09;;;;;;;13.80;3.85;;;;;;;;;;4937527;28;20093;-74
2023/12/10 03:44:35;;;;;;;;;;;;;;;;;;4939912;28;20029;-72
2023/12/10 03:47:04;;;;;;;16.85;4.97;;;;;;;;;;4971721;28;19917;-73
2023/12/10 03:49:30;;;;;;;13.20;4.70;;;;;;;;;;4985094;28;20748;-73
2023/12/10 03:51:57;;;;;;;14.77;4.55;;;;;;;;;;4982412;28;20732;-73
2023/12/10 03:54:23;;;;;;;13.95;4.50;;;;;;;;;;4983007;28;21200;-73
2023/12/10 03:56:50;;;;;;;14.68;4.53;;;;;;;;;;4985234;28;20089;-72
2023/12/10 03:59:15;;;;;;;;;;;;;;;;;;4979486;28;20038;-73
2023/12/10 04:01:45;;;;;;;16.50;5.40;;;;;;;;;;4985290;28;19949;-73
2023/12/10 04:04:14;;;;;;;14.55;4.30;;;;;;;;;;4978942;28;20030;-73
2023/12/10 04:06:41;;;;;;;15.15;4.55;;;;;;;;;;4984538;28;20777;-72
2023/12/10 04:09:08;;;;;;;14.95;4.28;;;;;;;;;;4981218;28;20886;-72
2023/12/10 04:11:34;;;;;;;15.13;4.57;;;;;;;;;;4983490;28;20032;-73
2023/12/10 04:14:00;;;;;;;13.88;3.97;;;;;;;;;;4981830;28;20045;-74
2023/12/10 04:16:27;;;;;;;13.10;3.70;;;;;;;;;;4985104;28;20029;-72
2023/12/10 04:18:53;;;;;;;14.48;4.15;;;;;;;;;;4982730;28;20060;-73
2023/12/10 04:21:22;;;;;;;12.45;4.30;;;;;;;;;;4979138;28;20029;-73
2023/12/10 04:23:49;;;;;;;13.25;4.00;;;;;;;;;;4984472;28;20036;-74
2023/12/10 04:26:15;;;;;;;;;;;;;;;;;;4983117;28;20144;-73
2023/12/10 04:28:41;;;;;;;13.68;4.07;;;;;;;;;;4984791;28;20234;-73
2023/12/10 04:31:08;;;;;;;15.77;5.43;;;;;;;;;;4982282;28;20030;-73
2023/12/10 04:33:34;;;;;;;15.07;4.55;;;;;;;;;;4986090;28;20038;-73
2023/12/10 04:36:00;;;;;;;18.85;5.25;;;;;;;;;;4983802;28;20038;-74
2023/12/10 04:38:26;;;;;;;;;;;;;;;;;;4990424;28;20049;-73
2023/12/10 04:40:53;;;;;;;13.60;4.45;;;;;;;;;;4990111;28;20498;-73
2023/12/10 04:43:19;;;;;;;15.90;4.38;;;;;;;;;;4987064;28;20125;-74
2023/12/10 04:45:45;;;;;;;15.88;4.53;;;;;;;;;;4987547;28;20553;-73
2023/12/10 04:48:15;;;;;;;13.93;4.10;;;;;;;;;;4984786;28;20830;-73
2023/12/10 04:50:41;;;;;;;12.57;4.07;;;;;;;;;;4987963;28;20032;-73
2023/12/10 04:53:08;;;;;;;14.70;4.57;;;;;;;;;;4984632;28;20125;-74
2023/12/10 04:55:34;;;;;;;;;;;;;;;;;;4987799;28;20064;-73
2023/12/10 04:58:00;;;;;;;13.00;4.22;;;;;;;;;;4984227;28;19913;-73
2023/12/10 05:00:26;;;;;;;13.40;4.60;;;;;;;;;;4987806;28;20026;-73
2023/12/10 05:02:52;;;;;;;13.18;4.38;;;;;;;;;;4988776;28;20439;-72
2023/12/10 05:05:18;;;;;;;;;;;;;;;;;;4987184;28;20014;-72
2023/12/10 05:07:45;;;;;;;12.80;4.40;;;;;;;;;;4989794;28;19924;-72
2023/12/10 05:10:11;;;;;;;14.05;4.10;;;;;;;;;;4982636;28;20034;-72
2023/12/10 05:12:37;;;;;;;;;;;;;;;;;;4988386;28;20117;-73
2023/12/10 05:15:04;;;;;;;14.63;4.55;;;;;;;;;;4983807;28;19994;-73
2023/12/10 05:17:30;;;;;;;16.42;5.18;;;;;;;;;;4986930;28;20019;-73
2023/12/10 05:19:56;;;;;;;16.77;4.38;;;;;;;;;;4986333;28;20115;-72
2023/12/10 05:22:26;;;;;;;24.60;12.07;;;;;;;;;;4987492;28;20832;-74
2023/12/10 05:24:52;;;;;;;18.67;6.45;;;;;;;;;;4988343;28;20048;-72
2023/12/10 05:27:18;;;;;;;17.30;5.10;;;;;;;;;;4979972;28;20030;-72
2023/12/10 05:29:44;;;;;;;;;;;;;;;;;;4983667;28;20072;-74
2023/12/10 05:32:10;;;;;;;14.68;5.10;;;;;;;;;;4984119;28;20561;-74
2023/12/10 05:34:36;;;;;;;;;;;;;;;;;;4987231;28;20659;-73
2023/12/10 05:37:02;;;;;;;13.68;4.65;;;;;;;;;;4982385;28;19921;-73
2023/12/10 05:39:29;;;;;;;13.70;4.63;;;;;;;;;;4988146;28;20037;-74
2023/12/10 05:41:55;;;;;;;14.60;4.55;;;;;;;;;;4983602;28;20507;-72
2023/12/10 05:44:21;;;;;;;;;;;;;;;;;;4985017;28;20045;-73
2023/12/10 05:46:47;;;;;;;14.80;4.55;;;;;;;;;;4986765;28;20009;-73
2023/12/10 05:49:14;;;;;;;13.80;4.20;;;;;;;;;;4983482;28;20041;-72
2023/12/10 05:51:40;;;;;;;13.20;4.18;;;;;;;;;;4987613;28;20052;-74
2023/12/10 05:54:06;;;;;;;12.85;3.95;;;;;;;;;;4983790;28;20033;-72
2023/12/10 05:56:32;;;;;;;12.95;4.28;;;;;;;;;;4985952;28;20512;-72
2023/12/10 05:59:01;;;;;;;12.05;3.80;;;;;;;;;;4981345;28;20068;-72
2023/12/10 06:01:27;;;;;;;11.90;4.00;;;;;;;;;;4984881;28;20026;-73
2023/12/10 06:03:53;;;;;;;12.38;3.75;;;;;;;;;;4988855;28;20077;-72
2023/12/10 06:06:19;;;;;;;13.35;4.50;;;;;;;;;;4983715;28;20061;-73
2023/12/10 06:08:45;;;;;;;13.88;4.65;;;;;;;;;;4986509;28;20038;-74
2023/12/10 06:11:12;;;;;;;;;;;;;;;;;;4985293;28;20030;-72
2023/12/10 06:13:38;;;;;;;13.38;4.80;;;;;;;;;;4984599;28;19920;-72
2023/12/10 06:16:05;;;;;;;13.63;5.05;;;;;;;;;;4978199;28;20048;-72
2023/12/10 06:18:31;;;;;;;;;;;;;;;;;;4985237;28;20129;-73
2023/12/10 06:20:57;;;;;;;13.27;4.72;;;;;;;;;;4982604;28;19917;-73
2023/12/10 06:23:23;;;;;;;;;;;;;;;;;;4987684;28;20224;-75
2023/12/10 06:25:50;;;;;;;13.38;4.90;;;;;;;;;;4982914;28;19927;-73
2023/12/10 06:28:16;;;;;;;12.20;4.55;;;;;;;;;;4982463;28;20123;-73
2023/12/10 06:30:42;;;;;;;;;;;;;;;;;;4988409;28;20042;-73
2023/12/10 06:33:08;;;;;;;14.63;5.63;;;;;;;;;;4981750;28;19919;-72
2023/12/10 06:35:35;;;;;;;15.07;5.55;;;;;;;;;;4987670;28;20017;-73
2023/12/10 06:38:01;;;;;;;14.48;5.75;;;;;;;;;;4982282;28;20034;-71
2023/12/10 06:40:27;;;;;;;13.38;5.20;;;;;;;;;;4985633;28;20108;-72
2023/12/10 06:42:53;;;;;;;14.10;5.90;;;;;;;;;;4984312;28;20046;-72
2023/12/10 06:45:20;;;;;;;16.70;6.03;;;;;;;;;;4982351;28;20026;-73
2023/12/10 06:47:46;;;;;;;43.15;29.23;;;;;;;;;;4984851;28;20064;-73
2023/12/10 06:50:12;;;;;;;;;;;;;;;;;;4982719;28;20026;-72
2023/12/10 06:52:38;;;;;;;58.15;44.80;;;;;;;;;;4986958;28;20588;-74
2023/12/10 06:55:04;;;;;;;21.85;11.98;;;;;;;;;;4981505;28;20048;-74
2023/12/10 06:57:31;;;;;;;39.28;25.88;;;;;;;;;;4984775;28;20041;-74
2023/12/10 06:59:57;;;;;;;26.92;15.82;;;;;;;;;;4984639;28;20137;-74
2023/12/10 07:02:23;;;;;;;;;;;;;;;;;;4986468;28;20025;-73
2023/12/10 07:04:49;;;;;;;26.63;16.70;;;;;;;;;;4983489;28;19921;-72
2023/12/10 07:07:15;;;;;;;24.23;12.50;;;;;;;;;;4981087;28;20070;-73
2023/12/10 07:09:42;;;;;;;21.40;10.90;;;;;;;;;;4983455;28;20026;-73
2023/12/10 07:12:08;;;;;;;17.73;9.27;;;;;;;;;;4980134;28;20034;-73
2023/12/10 07:14:34;;;;;;;25.00;15.50;;;;;;;;;;4984706;28;20083;-73
2023/12/10 07:17:00;;;;;;;19.42;8.85;;;;;;;;;;4979546;28;20457;-73
2023/12/10 07:19:26;;;;;;;15.73;7.75;;;;;;;;;;4984492;28;20667;-73
2023/12/10 07:21:55;;;;;;;;;;;;;;;;;;4979759;28;20124;-73
2023/12/10 07:24:21;;;;;;;14.00;7.43;;;;;;;;;;4984406;28;20261;-74
2023/12/10 07:26:47;;;;;;;16.27;7.60;;;;;;;;;;4984092;28;20025;-74
2023/12/10 07:29:14;;;;;;;16.42;8.18;;;;;;;;;;4981413;28;20030;-73
2023/12/10 07:31:40;;;;;;;18.88;9.82;;;;;;;;;;4987547;28;20108;-74
2023/12/10 07:34:06;;;;;;;18.02;8.05;;;;;;;;;;4980989;28;20030;-73
2023/12/10 07:36:32;;;;;;;17.27;8.07;;;;;;;;;;4984502;28;20036;-73
2023/12/10 07:38:58;;;;;;;;;;;;;;;;;;4980725;28;20572;-73
2023/12/10 07:41:25;;;;;;;17.67;7.25;;;;;;;;;;4983018;28;19925;-74
2023/12/10 07:43:51;;;;;;;;;;;;;;;;;;4985094;28;20026;-74
2023/12/10 07:46:17;;;;;;;14.63;7.10;;;;;;;;;;4982464;28;19917;-75
2023/12/10 07:48:43;;;;;;;;;;;;;;;;;;4985284;28;20057;-73
2023/12/10 07:51:09;;;;;;;16.77;8.20;;;;;;;;;;4977428;28;20490;-74
2023/12/10 07:53:35;;;;;;;;;;;;;;;;;;4983269;28;20027;-73
2023/12/10 07:56:01;;;;;;;15.48;7.45;;;;;;;;;;4983446;28;19925;-73
2023/12/10 07:58:27;;;;;;;;;;;;;;;;;;4988099;28;20036;-74
2023/12/10 08:00:53;;;;;;;14.95;6.28;;;;;;;;;;4985163;28;19917;-74
2023/12/10 08:03:19;;;;;;;;;;;;;;;;;;4981282;28;20029;-74
2023/12/10 08:05:46;;;;;;;14.65;5.00;;;;;;;;;;4984268;28;20009;-74
2023/12/10 08:08:12;;;;;;;12.52;4.97;;;;;;;;;;4985386;28;20038;-73
2023/12/10 08:10:38;;;;;;;12.55;4.88;;;;;;;;;;4988487;28;20060;-74
2023/12/10 08:13:04;;;;;;;12.00;4.70;;;;;;;;;;4984824;28;20120;-75
2023/12/10 08:15:30;;;;;;;12.48;5.20;;;;;;;;;;4987756;28;20029;-73
2023/12/10 08:17:57;;;;;;;;;;;;;;;;;;4984674;28;20037;-74
2023/12/10 08:20:23;;;;;;;13.00;5.53;;;;;;;;;;4988628;28;20417;-74
2023/12/10 08:22:49;;;;;;;11.50;4.97;;;;;;;;;;4986548;28;20030;-74
2023/12/10 08:25:15;;;;;;;12.13;5.25;;;;;;;;;;4985038;28;20025;-74
2023/12/10 08:27:42;;;;;;;12.45;5.30;;;;;;;;;;4986939;28;20036;-74
2023/12/10 08:30:08;;;;;;;13.43;5.95;;;;;;;;;;4986004;28;20489;-73
2023/12/10 08:32:34;;;;;;;12.73;5.47;;;;;;;;;;4987806;28;20575;-74
2023/12/10 08:35:01;;;;;;;12.75;5.53;;;;;;;;;;4983777;28;20045;-73
2023/12/10 08:37:27;;;;;;;14.15;7.28;;;;;;;;;;4988120;28;20029;-73
2023/12/10 08:39:53;;;;;;;17.02;8.23;;;;;;;;;;4987977;28;20065;-74
2023/12/10 08:42:19;;;;;;;17.17;8.52;;;;;;;;;;4986301;28;20033;-74
2023/12/10 08:44:45;;;;;;;16.08;7.55;;;;;;;;;;4985069;28;20056;-74
2023/12/10 08:47:12;;;;;;;13.63;7.20;;;;;;;;;;4984854;28;20033;-73
2023/12/10 08:49:38;;;;;;;11.80;5.47;;;;;;;;;;4987662;28;20081;-73
2023/12/10 08:52:05;;;;;;;10.85;5.30;;;;;;;;;;4986625;28;20034;-73
2023/12/10 08:54:31;;;;;;;10.35;4.95;;;;;;;;;;4989145;28;20060;-73
2023/12/10 08:56:57;;;;;;;11.45;4.88;;;;;;;;;;4983049;28;20038;-72
2023/12/10 08:59:23;;;;;;;10.25;3.83;;;;;;;;;;4987251;28;20033;-73
2023/12/10 09:01:49;;;;;;;8.38;3.28;;;;;;;;;;4987997;28;20257;-73
2023/12/10 09:04:15;;;;;;;7.95;2.70;;;;;;;;;;4984217;28;20037;-73
2023/12/10 09:06:42;;;;;;;8.05;2.53;;;;;;;;;;4988984;28;20033;-74
2023/12/10 09:09:08;;;;;;;8.02;1.88;;;;;;;;;;4983077;28;20033;-74
2023/12/10 09:11:34;;;;;;;6.78;1.90;;;;;;;;;;4985155;28;20829;-74
2023/12/10 09:14:01;;;;;;;8.65;3.15;;;;;;;;;;4984017;28;20026;-72
2023/12/10 09:16:27;;;;;;;8.23;3.10;;;;;;;;;;4987857;28;20041;-73
2023/12/10 09:18:53;;;;;;;8.88;2.92;;;;;;;;;;4983040;28;20031;-74
2023/12/10 09:21:19;;;;;;;8.63;3.03;;;;;;;;;;4981711;28;20067;-74
2023/12/10 09:23:45;;;;;;;10.07;4.45;;;;;;;;;;4984515;28;20800;-73
2023/12/10 09:26:11;;;;;;;7.13;2.63;;;;;;;;;;4984488;28;20030;-74
2023/12/10 09:28:37;;;;;;;11.50;5.20;;;;;;;;;;4982908;28;20034;-73
2023/12/10 09:31:04;;;;;;;6.75;2.40;;;;;;;;;;4985419;28;20107;-74
2023/12/10 09:33:31;;;;;;;6.30;1.58;;;;;;;;;;4982737;28;20036;-74
2023/12/10 09:35:57;;;;;;;6.55;1.65;;;;;;;;;;4982134;28;20022;-74
2023/12/10 09:38:23;;;;;;;15.63;7.75;;;;;;;;;;4986967;28;20029;-74
2023/12/10 09:40:49;;;;;;;11.88;5.05;;;;;;;;;;4986544;28;20043;-73
2023/12/10 09:43:15;;;;;;;10.05;2.78;;;;;;;;;;4981485;28;20053;-73
2023/12/10 09:45:42;;;;;;;8.55;2.63;;;;;;;;;;4982520;28;20038;-75
2023/12/10 09:48:08;;;;;;;9.52;3.65;;;;;;;;;;4981228;28;20107;-74
2023/12/10 09:50:40;;;;;;;10.13;3.42;;;;;;;;;;4988003;28;20061;-74
2023/12/10 09:53:07;;;;;;;12.73;5.07;;;;;;;;;;4982354;28;20103;-74
2023/12/10 09:55:34;;;;;;;11.80;4.35;;;;;;;;;;4984960;28;20061;-74
2023/12/10 09:58:00;;;;;;;12.95;6.40;;;;;;;;;;4982686;28;20029;-74
2023/12/10 10:00:26;;;;;;;6.70;2.30;;;;;;;;;;4986809;28;20038;-75
2023/12/10 10:02:59;;;;;;;12.07;4.07;;;;;;;;;;4984522;28;20041;-73
2023/12/10 10:05:25;;;;;;;25.17;12.60;;;;;;;;;;4987645;28;20026;-73
2023/12/10 10:07:52;;;;;;;16.65;7.95;;;;;;;;;;4986287;28;20034;-74
2023/12/10 10:10:21;;;;;;;14.18;7.03;;;;;;;;;;4981028;28;20840;-72
2023/12/10 10:12:47;;;;;;;8.98;3.70;;;;;;;;;;4982194;28;20455;-74
2023/12/10 10:15:13;;;;;;;8.77;3.17;;;;;;;;;;4983529;28;20175;-73
2023/12/10 10:17:39;;;;;;;7.85;3.00;;;;;;;;;;4989305;28;20022;-74
2023/12/10 10:20:06;;;;;;;10.40;5.13;;;;;;;;;;4986828;28;20520;-74
2023/12/10 10:22:33;;;;;;;72.00;63.88;;;;;;;;;;4986981;28;20030;-72
2023/12/10 10:24:59;;;;;;;16.52;11.00;;;;;;;;;;4982682;28;20030;-73
2023/12/10 10:27:26;;;;;;;10.95;6.22;;;;;;;;;;4987543;28;20044;-74
2023/12/10 10:29:53;;;;;;;9.70;4.65;;;;;;;;;;4988102;28;20030;-73
2023/12/10 10:32:23;;;;;;;13.88;8.10;;;;;;;;;;4984183;28;20482;-72
2023/12/10 10:34:50;;;;;;;9.07;4.53;;;;;;;;;;4985684;28;20042;-74
2023/12/10 10:37:17;;;;;;;13.07;9.13;;;;;;;;;;4981506;28;20069;-74
2023/12/10 10:39:44;;;;;;;10.88;6.57;;;;;;;;;;4984937;28;20080;-72
2023/12/10 10:42:10;;;;;;;13.18;9.40;;;;;;;;;;4983647;28;20080;-74
2023/12/10 10:44:37;;;;;;;8.23;3.85;;;;;;;;;;4987094;28;20025;-72
2023/12/10 10:47:05;;;;;;;7.28;3.35;;;;;;;;;;4982564;28;20034;-73
2023/12/10 10:49:32;;;;;;;7.30;2.83;;;;;;;;;;4985279;28;20025;-74
2023/12/10 10:51:59;;;;;;;6.57;2.78;;;;;;;;;;4984353;28;20085;-74
2023/12/10 10:54:25;;;;;;;5.82;1.90;;;;;;;;;;4989211;28;20141;-74
2023/12/10 10:56:51;;;;;;;23.55;20.85;;;;;;;;;;4990047;28;20085;-75
2023/12/10 10:59:33;;;;;;;48.08;42.80;;;;;;;;;;4988917;28;20065;-74
2023/12/10 11:02:06;;;;;;;9.45;5.78;;;;;;;;;;4983436;28;20037;-74
2023/12/10 11:04:38;;;;;;;7.32;2.60;;;;;;;;;;4985832;28;20022;-74
2023/12/10 11:07:07;;;;;;;12.38;10.63;;;;;;;;;;4982322;28;20026;-75
2023/12/10 11:09:57;;;;;;;7.57;3.17;;;;;;;;;;4988772;28;20033;-75
2023/12/10 11:12:42;;;;;;;6.15;2.30;;;;;;;;;;4986878;28;20026;-73
2023/12/10 11:15:18;;;;;;;8.23;3.38;;;;;;;;;;4984438;28;20025;-73
2023/12/10 11:17:53;;;;;;;46.28;41.55;;;;;;;;;;4987340;28;20045;-75
2023/12/10 11:20:33;;;;;;;8.30;3.65;;;;;;;;;;4980423;28;20030;-74
2023/12/10 11:23:09;;;;;;;26.13;22.15;;;;;;;;;;4980797;28;20065;-74
2023/12/10 11:25:35;;;;;;;8.50;3.40;;;;;;;;;;4982025;28;20042;-74
2023/12/10 11:28:08;;;;;;;6.85;2.20;;;;;;;;;;4982871;28;20030;-74
2023/12/10 11:30:34;;;;;;;6.88;2.42;;;;;;;;;;4985576;28;20101;-75
2023/12/10 11:33:00;;;;;;;7.78;2.25;;;;;;;;;;4983498;28;20026;-75
2023/12/10 11:35:27;;;;;;;6.65;2.72;;;;;;;;;;4987041;28;20045;-75
2023/12/10 11:37:53;;;;;;;7.20;2.20;;;;;;;;;;4984360;28;20070;-76
2023/12/10 11:40:19;;;;;;;6.82;2.00;;;;;;;;;;4984140;28;20145;-74
2023/12/10 11:42:45;;;;;;;4.57;1.65;;;;;;;;;;4985336;28;20842;-74
2023/12/10 11:45:13;;;;;;;5.25;1.58;;;;;;;;;;4980801;28;20040;-75
2023/12/10 11:47:41;;;;;;;4.80;1.60;;;;;;;;;;4981761;28;20018;-75
2023/12/10 11:50:08;;;;;;;5.28;1.67;;;;;;;;;;4982776;28;20026;-77
2023/12/10 11:52:34;;;;;;;6.13;1.80;;;;;;;;;;4989243;28;20034;-77
2023/12/10 11:55:00;;;;;;;7.78;1.83;;;;;;;;;;4980223;28;20058;-78
2023/12/10 11:57:26;;;;;;;5.80;2.25;;;;;;;;;;4982688;28;20133;-76
2023/12/10 11:59:53;;;;;;;7.10;1.98;;;;;;;;;;4986617;28;20018;-75
2023/12/10 12:02:19;;;;;;;6.50;2.33;;;;;;;;;;4982888;28;20719;-75
2023/12/10 12:04:45;;;;;;;5.72;2.05;;;;;;;;;;4982101;28;20125;-75
2023/12/10 12:07:27;;;;;;;8.20;3.55;;;;;;;;;;4981815;28;20041;-76
2023/12/10 12:09:54;;;;;;;8.15;3.25;;;;;;;;;;4981283;28;20588;-77
2023/12/10 12:12:23;;;;;;;7.72;3.33;;;;;;;;;;4979501;28;20140;-77
2023/12/10 12:14:53;;;;;;;6.50;2.25;;;;;;;;;;4982935;28;20061;-76
2023/12/10 12:17:22;;;;;;;24.50;19.17;;;;;;;;;;4977383;28;20030;-77
2023/12/10 12:19:49;;;;;;;63.35;57.15;;;;;;;;;;4983782;28;20037;-77
2023/12/10 12:22:15;;;;;;;20.77;18.58;;;;;;;;;;4965319;28;20113;-76
2023/12/10 12:24:43;;;;;;;10.68;6.38;;;;;;;;;;4984948;28;20038;-77
2023/12/10 12:27:09;;;;;;;11.02;7.18;;;;;;;;;;4980268;28;20029;-75
2023/12/10 12:29:36;;;;;;;7.50;3.40;;;;;;;;;;4982825;28;20038;-77
2023/12/10 12:32:03;;;;;;;6.38;2.20;;;;;;;;;;4977631;28;20590;-76
2023/12/10 12:34:29;;;;;;;5.15;1.70;;;;;;;;;;4984085;28;20046;-75
2023/12/10 12:36:56;;;;;;;10.43;5.75;;;;;;;;;;4982663;28;20021;-75
2023/12/10 12:39:23;;;;;;;7.85;3.85;;;;;;;;;;4983855;28;20045;-77
2023/12/10 12:41:50;;;;;;;9.00;3.60;;;;;;;;;;4981415;28;20026;-75
2023/12/10 12:44:16;;;;;;;8.13;3.05;;;;;;;;;;4977978;28;20066;-76
2023/12/10 12:46:42;;;;;;;11.90;8.13;;;;;;;;;;4986135;28;20084;-77
2023/12/10 12:49:09;;;;;;;17.70;13.95;;;;;;;;;;4978826;28;20037;-76
2023/12/10 12:51:36;;;;;;;8.05;3.75;;;;;;;;;;4983212;28;20038;-75
2023/12/10 12:54:03;;;;;;;21.67;17.52;;;;;;;;;;4982163;28;20699;-76
2023/12/10 12:56:29;;;;;;;19.80;16.35;;;;;;;;;;4989220;28;20067;-76
2023/12/10 12:58:55;;;;;;;11.73;8.20;;;;;;;;;;4988203;28;20535;-76
2023/12/10 13:01:21;;;;;;;4.60;1.60;;;;;;;;;;4984913;28;20145;-76
2023/12/10 13:03:48;;;;;;;7.97;3.03;;;;;;;;;;4985919;28;20038;-76
2023/12/10 13:06:17;;;;;;;7.25;2.65;;;;;;;;;;4980896;28;20026;-70
2023/12/10 13:08:43;;;;;;;8.02;3.03;;;;;;;;;;4987887;28;20026;-72
2023/12/10 13:11:10;;;;;;;5.85;2.15;;;;;;;;;;4981327;28;20610;-70
2023/12/10 13:13:36;;;;;;;5.97;2.00;;;;;;;;;;4984997;28;20856;-72
2023/12/10 13:16:05;;;;;;;6.55;2.30;;;;;;;;;;4986655;28;20518;-72
2023/12/10 13:18:34;;;;;;;6.63;2.33;;;;;;;;;;4986766;28;20103;-71
2023/12/10 13:21:00;;;;;;;4.32;1.38;;;;;;;;;;4983540;28;20042;-74
2023/12/10 13:23:27;;;;;;;5.65;1.92;;;;;;;;;;4985402;28;20026;-74
2023/12/10 13:25:53;;;;;;;2.88;1.00;;;;;;;;;;4986420;28;20195;-74
2023/12/10 13:28:19;;;;;;;8.38;3.85;;;;;;;;;;4983404;28;20489;-74
2023/12/10 13:30:45;;;;;;;4.75;1.30;;;;;;;;;;4987735;28;20210;-74
2023/12/10 13:33:11;;;;;;;9.00;3.35;;;;;;;;;;4983859;28;20561;-72
2023/12/10 13:35:37;;;;;;;8.48;3.30;;;;;;;;;;4987258;28;20014;-74
2023/12/10 13:38:04;;;;;;;10.73;3.60;;;;;;;;;;4982893;28;20034;-72
2023/12/10 13:40:31;;;;;;;15.80;11.27;;;;;;;;;;4986665;28;20064;-73
2023/12/10 13:42:57;;;;;;;9.25;4.50;;;;;;;;;;4985862;28;20096;-73
2023/12/10 13:45:23;;;;;;;11.00;7.05;;;;;;;;;;4999244;28;20053;-72
2023/12/10 13:47:50;;;;;;;7.63;2.90;;;;;;;;;;4987376;28;20864;-72
2023/12/10 13:50:16;;;;;;;6.78;2.83;;;;;;;;;;4983628;28;20040;-73
2023/12/10 13:52:42;;;;;;;6.85;2.60;;;;;;;;;;4983007;28;20044;-71
2023/12/10 13:55:08;;;;;;;7.50;2.92;;;;;;;;;;4981412;28;20107;-73
2023/12/10 13:57:34;;;;;;;10.65;6.85;;;;;;;;;;4982096;28;20045;-72
2023/12/10 14:00:01;;;;;;;6.93;2.55;;;;;;;;;;4982998;28;20033;-72
2023/12/10 14:02:29;;;;;;;8.00;2.80;;;;;;;;;;4986361;28;20041;-73
2023/12/10 14:04:56;;;;;;;7.95;2.60;;;;;;;;;;4985457;28;20030;-73
2023/12/10 14:07:22;;;;;;;7.72;2.58;;;;;;;;;;4984686;28;20085;-71
2023/12/10 14:09:49;;;;;;;7.30;2.20;;;;;;;;;;4983099;28;20108;-72
2023/12/10 14:12:15;;;;;;;8.27;3.05;;;;;;;;;;4981074;28;20550;-72
2023/12/10 14:14:41;;;;;;;9.55;3.05;;;;;;;;;;4984357;28;20045;-73
2023/12/10 14:17:07;;;;;;;7.30;2.85;;;;;;;;;;4982807;28;20137;-71
2023/12/10 14:19:33;;;;;;;5.88;2.13;;;;;;;;;;4986597;28;20108;-71
2023/12/10 14:22:00;;;;;;;6.80;2.03;;;;;;;;;;4984212;28;20025;-72
2023/12/10 14:24:26;;;;;;;5.90;2.00;;;;;;;;;;4984826;28;20041;-73
2023/12/10 14:26:52;;;;;;;8.68;3.20;;;;;;;;;;4984412;28;20104;-73
2023/12/10 14:29:18;;;;;;;6.80;2.42;;;;;;;;;;4982767;28;20064;-73
2023/12/10 14:31:44;;;;;;;7.13;2.40;;;;;;;;;;4988101;28;20037;-73
2023/12/10 14:34:10;;;;;;;6.47;2.20;;;;;;;;;;4981720;28;20230;-72
2023/12/10 14:36:37;;;;;;;6.65;2.33;;;;;;;;;;4987656;28;20128;-75
2023/12/10 14:39:05;;;;;;;5.55;1.98;;;;;;;;;;4982898;28;20088;-72
2023/12/10 14:41:31;;;;;;;22.20;17.55;;;;;;;;;;4985233;28;20041;-73
2023/12/10 14:43:57;;;;;;;9.23;4.45;;;;;;;;;;4984960;28;20058;-73